Time;durP1;ratioP1;P1;durP2;ratioP2;P2;SDS_P1;SDS_P2;PMS_P1;PMS_P2;Temp;Humidity;BMP_temperature;BMP_pressure;BME280_temperature;BME280_humidity;BME280_pressure;Samples;Min_cycle;Max_cycle;Signal;HPM_P1;HPM_P2
2021/08/08 00:02:11;;;;;;;;;;;28.70;91.10;;;;;;5046708;28;19913;-52
2021/08/08 00:04:38;;;;;;;;;;;28.70;91.00;;;;;;5029026;28;19972;-49
2021/08/08 00:07:04;;;;;;;;;;;28.70;91.00;;;;;;5029115;28;19909;-51
2021/08/08 00:09:30;;;;;;;;;;;28.70;91.10;;;;;;5046693;28;19909;-49
2021/08/08 00:11:56;;;;;;;;;;;28.70;91.20;;;;;;5047215;28;19913;-50
2021/08/08 00:14:26;;;;;;;;;;;28.70;91.40;;;;;;5028743;28;19913;-45
2021/08/08 00:16:52;;;;;;;;;;;28.60;91.60;;;;;;5046881;28;19924;-49
2021/08/08 00:19:18;;;;;;;;;;;28.60;91.70;;;;;;5046665;28;19908;-47
2021/08/08 00:21:44;;;;;;;;;;;28.60;91.80;;;;;;5046821;28;19909;-49
2021/08/08 00:24:10;;;;;;;;;;;28.60;91.90;;;;;;5046284;28;19909;-44
2021/08/08 00:26:39;;;;;;;;;;;28.60;91.90;;;;;;5047156;28;19909;-47
2021/08/08 00:29:06;;;;;;;;;;;28.50;92.00;;;;;;5046260;28;19959;-49
2021/08/08 00:31:32;;;;;;;;;;;28.50;92.00;;;;;;5046500;28;20240;-48
2021/08/08 00:33:58;;;;;;;;;;;28.50;92.00;;;;;;5046309;28;19909;-49
2021/08/08 00:36:25;;;;;;;;;;;28.50;92.10;;;;;;5028505;28;19912;-52
2021/08/08 00:38:52;;;;;;;;;;;28.50;92.10;;;;;;5045886;28;20198;-52
2021/08/08 00:41:18;;;;;;;;;;;28.50;92.10;;;;;;5046081;28;19909;-53
2021/08/08 00:43:44;;;;;;;;;;;28.50;92.10;;;;;;5046005;28;19909;-49
2021/08/08 00:46:10;;;;;;;;;;;28.40;92.10;;;;;;5046276;28;19910;-53
2021/08/08 00:48:37;;;;;;;;;;;28.40;92.10;;;;;;5045528;28;19920;-49
2021/08/08 00:51:04;;;;;;;;;;;28.40;92.00;;;;;;5045926;28;19920;-44
2021/08/08 00:53:30;;;;;;;;;;;28.40;92.00;;;;;;5045475;28;19921;-49
2021/08/08 00:55:56;;;;;;;;;;;28.40;92.10;;;;;;5046078;28;19920;-41
2021/08/08 00:58:23;;;;;;;;;;;28.30;92.30;;;;;;5045592;28;19912;-43
2021/08/08 01:00:50;;;;;;;;;;;28.20;92.40;;;;;;5044960;28;19951;-49
2021/08/08 01:03:16;;;;;;;;;;;28.10;92.50;;;;;;5045519;28;19928;-43
2021/08/08 01:05:45;;;;;;;;;;;28.00;92.40;;;;;;5027191;28;20097;-43
2021/08/08 01:08:14;;;;;;;;;;;28.00;92.50;;;;;;5045147;28;19913;-41
2021/08/08 01:10:40;;;;;;;;;;;27.90;92.40;;;;;;5045733;28;19913;-41
2021/08/08 01:13:08;;;;;;;;;;;27.90;92.40;;;;;;5044370;28;19909;-49
2021/08/08 01:15:34;;;;;;;;;;;27.90;92.30;;;;;;5027555;28;19913;-50
2021/08/08 01:18:01;;;;;;;;;;;27.80;92.30;;;;;;5045300;28;19905;-50
2021/08/08 01:20:29;;;;;;;;;;;27.80;92.40;;;;;;5027383;28;19913;-51
2021/08/08 01:22:59;;;;;;;;;;;27.80;92.30;;;;;;5044265;28;19944;-49
2021/08/08 01:25:26;;;;;;;;;;;27.80;92.40;;;;;;5025917;28;19913;-43
2021/08/08 01:27:53;;;;;;;;;;;27.70;92.40;;;;;;5025712;28;20212;-46
2021/08/08 01:30:19;;;;;;;;;;;27.70;92.40;;;;;;5043412;28;20128;-37
2021/08/08 01:32:46;;;;;;;;;;;27.70;92.40;;;;;;5043321;28;19950;-54
2021/08/08 01:35:13;;;;;;;;;;;27.70;92.30;;;;;;5043164;28;20201;-44
2021/08/08 01:37:39;;;;;;;;;;;27.70;92.40;;;;;;5043283;28;19905;-45
2021/08/08 01:40:18;;;;;;;;;;;27.60;92.40;;;;;;5045280;28;19913;-48
2021/08/08 01:42:45;;;;;;;;;;;27.60;92.60;;;;;;5027957;28;19905;-48
2021/08/08 01:45:13;;;;;;;;;;;27.60;92.60;;;;;;5027906;28;19952;-40
2021/08/08 01:47:41;;;;;;;;;;;27.60;92.60;;;;;;5045281;28;19909;-43
2021/08/08 01:50:07;;;;;;;;;;;27.60;92.60;;;;;;5044652;28;19964;-50
2021/08/08 01:52:37;;;;;;;;;;;27.50;92.50;;;;;;5045225;28;19911;-41
2021/08/08 01:55:03;;;;;;;;;;;27.50;92.50;;;;;;5045107;28;19919;-44
2021/08/08 01:57:30;;;;;;;;;;;27.50;92.60;;;;;;5044896;28;19906;-42
2021/08/08 01:59:56;;;;;;;;;;;27.40;92.70;;;;;;5027804;28;19984;-56
2021/08/08 02:02:22;;;;;;;;;;;27.50;92.70;;;;;;5044581;28;19913;-46
2021/08/08 02:04:49;;;;;;;;;;;27.30;92.70;;;;;;5046077;28;19928;-48
2021/08/08 02:07:16;;;;;;;;;;;27.30;92.70;;;;;;5044357;28;19912;-46
2021/08/08 02:09:43;;;;;;;;;;;27.30;92.70;;;;;;5026960;28;19909;-42
2021/08/08 02:12:10;;;;;;;;;;;27.30;92.60;;;;;;5044635;28;19912;-42
2021/08/08 02:14:36;;;;;;;;;;;27.30;92.40;;;;;;5026922;28;19977;-45
2021/08/08 02:17:03;;;;;;;;;;;27.20;92.30;;;;;;5027102;28;20105;-42
2021/08/08 02:19:29;;;;;;;;;;;27.20;92.10;;;;;;5044381;28;19905;-44
2021/08/08 02:21:56;;;;;;;;;;;27.20;92.00;;;;;;5045494;28;19971;-44
2021/08/08 02:24:22;;;;;;;;;;;27.20;91.90;;;;;;5044874;28;19905;-46
2021/08/08 02:26:48;;;;;;;;;;;27.20;91.70;;;;;;5045161;28;19959;-48
2021/08/08 02:29:15;;;;;;;;;;;27.10;91.60;;;;;;5043769;28;19916;-47
2021/08/08 02:31:43;;;;;;;;;;;27.10;91.70;;;;;;5027577;28;19920;-53
2021/08/08 02:34:10;;;;;;;;;;;27.10;91.70;;;;;;5044240;28;19972;-45
2021/08/08 02:36:36;;;;;;;;;;;27.10;91.70;;;;;;5044403;28;19913;-46
2021/08/08 02:39:03;;;;;;;;;;;27.10;91.60;;;;;;5045047;28;19980;-48
2021/08/08 02:41:29;;;;;;;;;;;27.10;91.60;;;;;;5044438;28;19913;-49
2021/08/08 02:43:56;;;;;;;;;;;27.10;91.60;;;;;;5043978;28;20082;-49
2021/08/08 02:46:22;;;;;;;;;;;27.10;91.70;;;;;;5044302;28;19920;-44
2021/08/08 02:48:48;;;;;;;;;;;27.00;91.80;;;;;;5043574;28;19917;-45
2021/08/08 02:51:15;;;;;;;;;;;27.00;91.80;;;;;;5044834;28;20240;-47
2021/08/08 02:53:41;;;;;;;;;;;27.00;91.80;;;;;;5044021;28;20158;-43
2021/08/08 02:56:07;;;;;;;;;;;26.90;91.70;;;;;;5044146;28;19913;-48
2021/08/08 02:58:33;;;;;;;;;;;27.00;91.90;;;;;;5043962;28;19905;-50
2021/08/08 03:00:59;;;;;;;;;;;27.00;92.10;;;;;;5043976;28;19913;-47
2021/08/08 03:03:26;;;;;;;;;;;27.00;92.00;;;;;;5043925;28;20193;-45
2021/08/08 03:05:52;;;;;;;;;;;26.90;92.20;;;;;;5044044;28;20215;-47
2021/08/08 03:08:18;;;;;;;;;;;26.90;92.20;;;;;;5044096;28;19909;-41
2021/08/08 03:10:44;;;;;;;;;;;26.90;92.10;;;;;;5026895;28;20207;-45
2021/08/08 03:13:10;;;;;;;;;;;26.90;92.20;;;;;;5026846;28;20186;-40
2021/08/08 03:15:37;;;;;;;;;;;26.90;92.20;;;;;;5043887;28;19913;-45
2021/08/08 03:18:03;;;;;;;;;;;26.90;92.30;;;;;;5044151;28;19932;-47
2021/08/08 03:20:29;;;;;;;;;;;26.90;92.30;;;;;;5044714;28;20193;-49
2021/08/08 03:22:55;;;;;;;;;;;27.00;92.20;;;;;;5045435;28;19972;-49
2021/08/08 03:25:21;;;;;;;;;;;27.00;92.10;;;;;;5047504;28;19913;-52
2021/08/08 03:27:50;;;;;;;;;;;27.10;92.10;;;;;;5047663;28;20193;-51
2021/08/08 03:30:17;;;;;;;;;;;27.10;92.10;;;;;;5047838;28;19917;-48
2021/08/08 03:32:44;;;;;;;;;;;27.10;92.00;;;;;;5030721;28;20212;-49
2021/08/08 03:35:10;;;;;;;;;;;27.10;92.10;;;;;;5048146;28;19913;-53
2021/08/08 03:37:37;;;;;;;;;;;27.20;92.10;;;;;;5046943;28;19905;-49
2021/08/08 03:40:03;;;;;;;;;;;27.20;92.20;;;;;;5047316;28;20108;-51
2021/08/08 03:42:30;;;;;;;;;;;27.10;92.10;;;;;;5047175;28;19905;-48
2021/08/08 03:44:56;;;;;;;;;;;27.20;92.10;;;;;;5047496;28;19909;-53
2021/08/08 03:47:23;;;;;;;;;;;27.20;92.00;;;;;;5029137;28;19920;-55
2021/08/08 03:49:49;;;;;;;;;;;27.20;92.00;;;;;;5025818;28;19924;-49
2021/08/08 03:52:15;;;;;;;;;;;27.20;92.00;;;;;;5027188;28;19921;-50
2021/08/08 03:54:41;;;;;;;;;;;27.20;92.00;;;;;;5027221;28;19913;-48
2021/08/08 03:57:07;;;;;;;;;;;27.10;92.00;;;;;;5025659;28;19914;-47
2021/08/08 03:59:33;;;;;;;;;;;27.20;92.00;;;;;;5026717;28;20193;-54
2021/08/08 04:02:00;;;;;;;;;;;27.10;92.10;;;;;;5026804;28;20225;-50
2021/08/08 04:04:26;;;;;;;;;;;27.10;92.00;;;;;;5026715;28;20193;-52
2021/08/08 04:06:52;;;;;;;;;;;27.10;91.90;;;;;;5027427;28;19936;-49
2021/08/08 04:09:18;;;;;;;;;;;27.10;91.90;;;;;;5027245;28;19937;-50
2021/08/08 04:11:44;;;;;;;;;;;27.10;91.80;;;;;;5026931;28;20106;-51
2021/08/08 04:14:10;;;;;;;;;;;27.10;91.80;;;;;;5026772;28;20202;-51
2021/08/08 04:16:36;;;;;;;;;;;27.10;91.80;;;;;;5026381;28;20190;-51
2021/08/08 04:19:03;;;;;;;;;;;27.10;91.80;;;;;;5026614;28;19948;-49
2021/08/08 04:21:29;;;;;;;;;;;27.10;91.70;;;;;;5026487;28;20194;-52
2021/08/08 04:23:55;;;;;;;;;;;27.10;91.70;;;;;;5026702;28;20205;-49
2021/08/08 04:26:21;;;;;;;;;;;27.10;91.70;;;;;;5026251;28;20190;-53
2021/08/08 04:28:47;;;;;;;;;;;27.10;91.50;;;;;;5026582;28;19918;-51
2021/08/08 04:31:14;;;;;;;;;;;27.10;91.40;;;;;;5025996;28;19987;-50
2021/08/08 04:33:40;;;;;;;;;;;27.10;91.40;;;;;;5024614;28;19924;-50
2021/08/08 04:36:06;;;;;;;;;;;27.10;91.60;;;;;;5026024;28;19906;-45
2021/08/08 04:38:32;;;;;;;;;;;27.10;91.50;;;;;;5026410;28;19914;-52
2021/08/08 04:40:58;;;;;;;;;;;27.10;91.50;;;;;;5026089;28;19905;-50
2021/08/08 04:43:25;;;;;;;;;;;27.10;91.40;;;;;;5026339;28;19914;-47
2021/08/08 04:45:51;;;;;;;;;;;27.10;91.40;;;;;;5025939;28;19906;-56
2021/08/08 04:48:17;;;;;;;;;;;27.10;91.30;;;;;;5024839;28;19917;-50
2021/08/08 04:50:43;;;;;;;;;;;27.10;91.40;;;;;;5025997;28;19917;-46
2021/08/08 04:53:14;;;;;;;;;;;27.10;91.40;;;;;;5024578;28;19910;-53
2021/08/08 04:55:40;;;;;;;;;;;27.10;91.50;;;;;;5025785;28;19980;-47
2021/08/08 04:58:06;;;;;;;;;;;27.10;91.50;;;;;;5026157;28;19916;-46
2021/08/08 05:00:32;;;;;;;;;;;27.10;91.40;;;;;;5025886;28;19916;-47
2021/08/08 05:03:00;;;;;;;;;;;27.10;91.40;;;;;;5026178;28;19916;-51
2021/08/08 05:05:26;;;;;;;;;;;27.10;91.40;;;;;;5025948;28;19910;-53
2021/08/08 05:07:52;;;;;;;;;;;27.00;91.40;;;;;;5026076;28;20129;-49
2021/08/08 05:10:18;;;;;;;;;;;27.00;91.50;;;;;;5025606;28;19940;-52
2021/08/08 05:12:45;;;;;;;;;;;27.00;91.40;;;;;;5024631;28;19910;-47
2021/08/08 05:15:11;;;;;;;;;;;27.00;91.50;;;;;;5025429;28;19944;-47
2021/08/08 05:17:38;;;;;;;;;;;27.00;91.50;;;;;;5025571;28;19976;-48
2021/08/08 05:20:05;;;;;;;;;;;27.00;91.50;;;;;;5025219;28;19909;-47
2021/08/08 05:22:31;;;;;;;;;;;27.00;91.50;;;;;;5025731;28;20230;-48
2021/08/08 05:25:01;;;;;;;;;;;27.00;91.60;;;;;;5025352;28;19910;-46
2021/08/08 05:27:27;;;;;;;;;;;26.90;91.50;;;;;;5025474;28;19952;-47
2021/08/08 05:29:53;;;;;;;;;;;27.00;91.40;;;;;;5025166;28;19952;-49
2021/08/08 05:32:20;;;;;;;;;;;26.90;91.40;;;;;;5024363;28;19909;-46
2021/08/08 05:34:46;;;;;;;;;;;26.90;91.30;;;;;;5023571;28;19916;-54
2021/08/08 05:37:13;;;;;;;;;;;27.00;91.30;;;;;;5023399;28;19941;-50
2021/08/08 05:39:39;;;;;;;;;;;26.90;91.40;;;;;;5023522;28;19952;-53
2021/08/08 05:42:05;;;;;;;;;;;26.90;91.40;;;;;;5023557;28;19923;-54
2021/08/08 05:44:37;;;;;;;;;;;26.90;91.40;;;;;;5023703;28;19913;-55
2021/08/08 05:47:04;;;;;;;;;;;26.90;91.40;;;;;;5023023;28;19909;-56
2021/08/08 05:49:33;;;;;;;;;;;26.90;91.40;;;;;;5033900;28;19981;-48
2021/08/08 05:52:00;;;;;;;;;;;26.90;91.50;;;;;;5027169;28;19920;-47
2021/08/08 05:54:27;;;;;;;;;;;26.90;91.50;;;;;;5044503;28;19906;-49
2021/08/08 05:56:53;;;;;;;;;;;26.90;91.60;;;;;;5044355;28;19940;-56
2021/08/08 05:59:19;;;;;;;;;;;26.90;91.50;;;;;;5044410;28;19972;-60
2021/08/08 06:01:45;;;;;;;;;;;26.90;91.40;;;;;;5043907;28;19905;-50
2021/08/08 06:04:11;;;;;;;;;;;26.90;91.40;;;;;;5044412;28;19956;-54
2021/08/08 06:06:37;;;;;;;;;;;26.90;91.30;;;;;;5044116;28;19905;-50
2021/08/08 06:09:04;;;;;;;;;;;26.80;91.30;;;;;;5044040;28;19983;-54
2021/08/08 06:11:30;;;;;;;;;;;26.80;91.20;;;;;;5044166;28;19971;-55
2021/08/08 06:13:56;;;;;;;;;;;26.80;91.20;;;;;;5044376;28;19909;-47
2021/08/08 06:16:22;;;;;;;;;;;26.80;91.20;;;;;;5043996;28;19916;-49
2021/08/08 06:18:48;;;;;;;;;;;26.80;91.10;;;;;;5044436;28;20237;-50
2021/08/08 06:21:15;;;;;;;;;;;26.90;91.00;;;;;;5043879;28;19909;-50
2021/08/08 06:23:41;;;;;;;;;;;26.80;90.90;;;;;;5044023;28;19910;-60
2021/08/08 06:26:07;;;;;;;;;;;26.80;90.80;;;;;;5043918;28;19916;-54
2021/08/08 06:28:33;;;;;;;;;;;26.80;90.80;;;;;;5044266;28;19920;-55
2021/08/08 06:30:59;;;;;;;;;;;26.80;90.90;;;;;;5043899;28;19956;-55
2021/08/08 06:33:25;;;;;;;;;;;26.80;91.00;;;;;;5044048;28;19909;-57
2021/08/08 06:35:53;;;;;;;;;;;26.80;91.10;;;;;;5044008;28;19909;-51
2021/08/08 06:38:19;;;;;;;;;;;26.80;91.10;;;;;;5044045;28;19951;-45
2021/08/08 06:40:46;;;;;;;;;;;26.70;91.10;;;;;;5043845;28;19909;-47
2021/08/08 06:43:12;;;;;;;;;;;26.70;91.30;;;;;;5044098;28;19909;-44
2021/08/08 06:45:38;;;;;;;;;;;26.70;91.30;;;;;;5043832;28;19909;-49
2021/08/08 06:48:04;;;;;;;;;;;26.70;91.40;;;;;;5043878;28;19919;-47
2021/08/08 06:50:30;;;;;;;;;;;26.70;91.50;;;;;;5043479;28;19917;-50
2021/08/08 06:52:57;;;;;;;;;;;26.70;91.50;;;;;;5044067;28;19920;-54
2021/08/08 06:55:24;;;;;;;;;;;26.70;91.60;;;;;;5043513;28;20189;-51
2021/08/08 06:57:50;;;;;;;;;;;26.70;91.70;;;;;;5046092;28;19960;-53
2021/08/08 07:00:17;;;;;;;;;;;26.70;91.80;;;;;;5047666;28;19928;-52
2021/08/08 07:02:45;;;;;;;;;;;26.70;92.00;;;;;;5047738;28;20150;-55
2021/08/08 07:05:11;;;;;;;;;;;26.60;91.90;;;;;;5047631;28;19937;-48
2021/08/08 07:07:37;;;;;;;;;;;26.60;91.90;;;;;;5047639;28;19955;-50
2021/08/08 07:10:04;;;;;;;;;;;26.60;92.00;;;;;;5047324;28;19929;-52
2021/08/08 07:12:30;;;;;;;;;;;26.60;92.10;;;;;;5047461;28;19913;-55
2021/08/08 07:14:56;;;;;;;;;;;26.60;91.90;;;;;;5029866;28;19928;-50
2021/08/08 07:17:22;;;;;;;;;;;26.60;91.80;;;;;;5047428;28;19913;-49
2021/08/08 07:19:49;;;;;;;;;;;26.60;91.80;;;;;;5047070;28;20129;-56
2021/08/08 07:22:15;;;;;;;;;;;26.60;91.80;;;;;;5047204;28;19967;-52
2021/08/08 07:24:42;;;;;;;;;;;26.50;91.80;;;;;;5047230;28;19942;-53
2021/08/08 07:27:11;;;;;;;;;;;26.60;91.90;;;;;;5047008;28;20067;-53
2021/08/08 07:29:37;;;;;;;;;;;26.60;91.90;;;;;;5047107;28;19992;-51
2021/08/08 07:32:03;;;;;;;;;;;26.60;92.00;;;;;;5046969;28;20182;-53
2021/08/08 07:34:29;;;;;;;;;;;26.50;92.00;;;;;;5047509;28;19932;-54
2021/08/08 07:36:56;;;;;;;;;;;26.50;92.00;;;;;;5047083;28;19913;-54
2021/08/08 07:39:22;;;;;;;;;;;26.50;91.90;;;;;;5046742;28;19905;-47
2021/08/08 07:41:48;;;;;;;;;;;26.50;91.80;;;;;;5028997;28;20113;-46
2021/08/08 07:44:15;;;;;;;;;;;26.50;91.90;;;;;;5046711;28;19916;-56
2021/08/08 07:46:41;;;;;;;;;;;26.50;92.00;;;;;;5046790;28;19905;-56
2021/08/08 07:49:07;;;;;;;;;;;26.50;92.10;;;;;;5046298;28;19917;-55
2021/08/08 07:51:33;;;;;;;;;;;26.50;92.10;;;;;;5046783;28;19980;-53
2021/08/08 07:53:59;;;;;;;;;;;26.50;92.20;;;;;;5028980;28;20160;-57
2021/08/08 07:56:25;;;;;;;;;;;26.50;92.20;;;;;;5046560;28;20186;-54
2021/08/08 07:58:51;;;;;;;;;;;26.50;92.20;;;;;;5029014;28;19921;-53
2021/08/08 08:01:18;;;;;;;;;;;26.40;92.30;;;;;;5046412;28;19905;-56
2021/08/08 08:03:44;;;;;;;;;;;26.40;92.40;;;;;;5046926;28;19920;-53
2021/08/08 08:06:11;;;;;;;;;;;26.40;92.40;;;;;;5046333;28;19905;-54
2021/08/08 08:08:37;;;;;;;;;;;26.40;92.50;;;;;;5045437;28;19959;-54
2021/08/08 08:11:03;;;;;;;;;;;26.40;92.50;;;;;;5046472;28;19905;-53
2021/08/08 08:13:29;;;;;;;;;;;26.40;92.50;;;;;;5046360;28;20236;-54
2021/08/08 08:15:55;;;;;;;;;;;26.40;92.50;;;;;;5046417;28;19911;-56
2021/08/08 08:18:21;;;;;;;;;;;26.40;92.60;;;;;;5046394;28;19976;-49
2021/08/08 08:20:48;;;;;;;;;;;26.40;92.60;;;;;;5046138;28;19909;-47
2021/08/08 08:23:14;;;;;;;;;;;26.40;92.70;;;;;;5046794;28;19913;-53
2021/08/08 08:25:40;;;;;;;;;;;26.40;92.70;;;;;;5046195;28;19905;-53
2021/08/08 08:28:06;;;;;;;;;;;26.40;92.80;;;;;;5046382;28;19924;-52
2021/08/08 08:30:32;;;;;;;;;;;26.40;92.80;;;;;;5046437;28;19963;-55
2021/08/08 08:33:04;;;;;;;;;;;26.40;92.80;;;;;;5046097;28;20097;-58
2021/08/08 08:35:30;;;;;;;;;;;26.30;92.80;;;;;;5045839;28;20212;-53
2021/08/08 08:37:56;;;;;;;;;;;26.40;92.90;;;;;;5046043;28;19919;-51
2021/08/08 08:40:23;;;;;;;;;;;26.40;93.00;;;;;;5045875;28;19906;-52
2021/08/08 08:42:50;;;;;;;;;;;26.30;93.00;;;;;;5045792;28;19913;-57
2021/08/08 08:45:16;;;;;;;;;;;26.30;93.00;;;;;;5045580;28;19912;-51
2021/08/08 08:47:44;;;;;;;;;;;26.30;93.00;;;;;;5028087;28;19913;-50
2021/08/08 08:50:11;;;;;;;;;;;26.30;93.00;;;;;;5045231;28;19980;-51
2021/08/08 08:52:37;;;;;;;;;;;26.30;93.00;;;;;;5045793;28;20113;-50
2021/08/08 08:55:04;;;;;;;;;;;26.30;93.00;;;;;;5045432;28;20153;-50
2021/08/08 08:57:30;;;;;;;;;;;26.30;93.00;;;;;;5045532;28;19980;-51
2021/08/08 08:59:58;;;;;;;;;;;26.30;93.10;;;;;;5045441;28;19919;-52
2021/08/08 09:02:24;;;;;;;;;;;26.30;93.10;;;;;;5045584;28;19913;-53
2021/08/08 09:04:50;;;;;;;;;;;26.30;93.10;;;;;;5045317;28;19905;-51
2021/08/08 09:07:17;;;;;;;;;;;26.20;93.10;;;;;;5045228;28;20081;-55
2021/08/08 09:09:43;;;;;;;;;;;26.30;93.20;;;;;;5045259;28;20187;-54
2021/08/08 09:12:09;;;;;;;;;;;26.30;93.30;;;;;;5045135;28;19936;-49
2021/08/08 09:14:36;;;;;;;;;;;26.30;93.40;;;;;;5027326;28;20186;-53
2021/08/08 09:17:02;;;;;;;;;;;26.20;93.30;;;;;;5045462;28;19988;-55
2021/08/08 09:19:30;;;;;;;;;;;26.30;93.40;;;;;;5028296;28;19905;-49
2021/08/08 09:21:56;;;;;;;;;;;26.30;93.40;;;;;;5027192;28;19917;-57
2021/08/08 09:24:26;;;;;;;;;;;26.30;93.40;;;;;;5044857;28;19927;-54
2021/08/08 09:27:12;;;;;;;;;;;26.20;93.50;;;;;;5027222;28;19905;-50
2021/08/08 09:29:44;;;;;;;;;;;26.20;93.50;;;;;;5044544;28;19916;-52
2021/08/08 09:32:10;;;;;;;;;;;26.30;93.50;;;;;;5045746;28;19984;-51
2021/08/08 09:34:58;;;;;;;;;;;26.20;93.60;;;;;;5045313;28;19912;-50
2021/08/08 09:37:23;;;;;;;;;;;26.20;93.70;;;;;;5044265;28;20296;-48
2021/08/08 09:39:51;;;;;;;;;;;26.20;93.70;;;;;;5044823;28;19968;-47
2021/08/08 09:42:25;;;;;;;;;;;26.20;93.70;;;;;;5045229;28;19913;-53
2021/08/08 09:45:05;;;;;;;;;;;26.20;93.70;;;;;;5044427;28;19959;-52
2021/08/08 09:47:45;;;;;;;;;;;26.20;93.70;;;;;;5044777;28;19980;-51
2021/08/08 09:50:11;;;;;;;;;;;26.20;93.70;;;;;;5044044;28;19917;-54
2021/08/08 09:52:38;;;;;;;;;;;26.20;93.70;;;;;;5044752;28;19913;-56
2021/08/08 09:55:15;;;;;;;;;;;26.20;93.80;;;;;;5045041;28;20002;-52
2021/08/08 09:57:42;;;;;;;;;;;26.20;93.70;;;;;;5044810;28;19913;-50
2021/08/08 10:00:09;;;;;;;;;;;26.20;93.70;;;;;;5044452;28;19905;-51
2021/08/08 10:02:35;;;;;;;;;;;26.20;93.80;;;;;;5044855;28;19917;-51
2021/08/08 10:05:02;;;;;;;;;;;26.20;93.90;;;;;;5044401;28;19912;-49
2021/08/08 10:07:29;;;;;;;;;;;26.20;93.90;;;;;;5044652;28;19983;-54
2021/08/08 10:09:59;;;;;;;;;;;26.20;93.90;;;;;;5044382;28;19913;-53
2021/08/08 10:12:33;;;;;;;;;;;26.20;93.80;;;;;;5044288;28;19941;-61
2021/08/08 10:15:01;;;;;;;;;;;26.20;93.90;;;;;;5044284;28;20221;-58
2021/08/08 10:17:28;;;;;;;;;;;26.20;93.90;;;;;;5044148;28;19940;-53
2021/08/08 10:19:55;;;;;;;;;;;26.20;93.90;;;;;;5043942;28;19976;-53
2021/08/08 10:22:23;;;;;;;;;;;26.20;93.90;;;;;;5044110;28;20100;-57
2021/08/08 10:24:55;;;;;;;;;;;26.20;93.90;;;;;;5044118;28;20073;-49
2021/08/08 10:27:22;;;;;;;;;;;26.20;94.10;;;;;;5044078;28;19919;-48
2021/08/08 10:29:50;;;;;;;;;;;26.20;94.10;;;;;;5043998;28;19909;-52
2021/08/08 10:32:16;;;;;;;;;;;26.20;94.10;;;;;;5044012;28;19919;-57
2021/08/08 10:34:43;;;;;;;;;;;26.20;94.00;;;;;;5044430;28;19969;-49
2021/08/08 10:37:10;;;;;;;;;;;26.20;94.10;;;;;;5044151;28;20144;-49
2021/08/08 10:39:44;;;;;;;;;;;26.20;94.10;;;;;;5044022;28;19905;-56
2021/08/08 10:42:10;;;;;;;;;;;26.20;94.20;;;;;;5026343;28;19959;-56
2021/08/08 10:44:46;;;;;;;;;;;26.20;94.10;;;;;;5044041;28;20155;-49
2021/08/08 10:47:23;;;;;;;;;;;26.20;94.20;;;;;;5043826;28;19913;-51
2021/08/08 10:49:49;;;;;;;;;;;26.20;94.10;;;;;;5043600;28;19924;-49
2021/08/08 10:52:15;;;;;;;;;;;26.20;94.10;;;;;;5043894;28;19914;-52
2021/08/08 10:54:42;;;;;;;;;;;26.20;94.10;;;;;;5043745;28;19905;-51
2021/08/08 10:57:12;;;;;;;;;;;26.20;94.00;;;;;;5043898;28;19913;-53
2021/08/08 10:59:44;;;;;;;;;;;26.20;94.00;;;;;;5043629;28;19905;-50
2021/08/08 11:02:11;;;;;;;;;;;26.20;94.00;;;;;;5043688;28;19939;-47
2021/08/08 11:04:38;;;;;;;;;;;26.20;93.90;;;;;;5043585;28;19906;-45
2021/08/08 11:07:04;;;;;;;;;;;26.20;93.90;;;;;;5043695;28;20177;-53
2021/08/08 11:09:31;;;;;;;;;;;26.20;94.00;;;;;;5043518;28;19933;-50
2021/08/08 11:11:58;;;;;;;;;;;26.20;94.00;;;;;;5043985;28;20085;-50
2021/08/08 11:14:26;;;;;;;;;;;26.20;94.00;;;;;;5043354;28;20267;-52
2021/08/08 11:17:01;;;;;;;;;;;26.20;94.00;;;;;;5043616;28;19945;-49
2021/08/08 11:19:31;;;;;;;;;;;26.20;93.90;;;;;;5043473;28;20208;-51
2021/08/08 11:22:12;;;;;;;;;;;26.20;93.90;;;;;;5043355;28;19991;-53
2021/08/08 11:24:38;;;;;;;;;;;26.20;93.90;;;;;;5043700;28;19912;-51
2021/08/08 11:27:06;;;;;;;;;;;26.20;93.90;;;;;;5043226;28;20104;-51
2021/08/08 11:29:33;;;;;;;;;;;26.20;93.90;;;;;;5043592;28;19909;-58
2021/08/08 11:32:00;;;;;;;;;;;26.20;93.90;;;;;;5043413;28;19913;-48
2021/08/08 11:34:27;;;;;;;;;;;26.20;93.90;;;;;;5043288;28;19905;-51
2021/08/08 11:36:56;;;;;;;;;;;26.20;93.90;;;;;;5043269;28;19928;-52
2021/08/08 11:39:29;;;;;;;;;;;26.20;93.80;;;;;;5043442;28;19928;-53
2021/08/08 11:42:02;;;;;;;;;;;26.30;93.80;;;;;;5043151;28;19919;-56
2021/08/08 11:44:36;;;;;;;;;;;26.20;93.70;;;;;;5044964;28;19912;-49
2021/08/08 11:47:02;;;;;;;;;;;26.20;93.70;;;;;;5046869;28;19913;-47
2021/08/08 11:49:30;;;;;;;;;;;26.30;93.70;;;;;;5046600;28;19924;-52
2021/08/08 11:52:00;;;;;;;;;;;26.30;93.70;;;;;;5046555;28;19980;-55
2021/08/08 11:54:28;;;;;;;;;;;26.30;93.70;;;;;;5046437;28;19905;-61
2021/08/08 11:56:54;;;;;;;;;;;26.30;93.50;;;;;;5046810;28;20185;-54
2021/08/08 11:59:38;;;;;;;;;;;26.30;93.50;;;;;;5046731;28;20133;-54
2021/08/08 12:02:07;;;;;;;;;;;26.30;93.50;;;;;;5046895;28;19909;-52
2021/08/08 12:04:37;;;;;;;;;;;26.30;93.60;;;;;;5046575;28;19909;-52
2021/08/08 12:07:05;;;;;;;;;;;26.30;93.60;;;;;;5046626;28;19963;-48
2021/08/08 12:09:31;;;;;;;;;;;26.30;93.60;;;;;;5046364;28;19956;-47
2021/08/08 12:11:58;;;;;;;;;;;26.30;93.70;;;;;;5046415;28;19909;-49
2021/08/08 12:14:31;;;;;;;;;;;26.30;93.60;;;;;;5046392;28;20188;-47
2021/08/08 12:17:06;;;;;;;;;;;26.30;93.60;;;;;;5046555;28;19959;-56
2021/08/08 12:19:33;;;;;;;;;;;26.30;93.60;;;;;;5046368;28;19909;-47
2021/08/08 12:22:02;;;;;;;;;;;26.30;93.60;;;;;;5046463;28;19917;-53
2021/08/08 12:24:35;;;;;;;;;;;26.30;93.60;;;;;;5029023;28;20105;-49
2021/08/08 12:27:02;;;;;;;;;;;26.30;93.70;;;;;;5046231;28;19909;-51
2021/08/08 12:29:38;;;;;;;;;;;26.30;93.70;;;;;;5046424;28;19913;-50
2021/08/08 12:32:05;;;;;;;;;;;26.30;93.90;;;;;;5046294;28;19909;-47
2021/08/08 12:34:32;;;;;;;;;;;26.30;94.10;;;;;;5046125;28;19976;-48
2021/08/08 12:37:02;;;;;;;;;;;26.30;94.20;;;;;;5046300;28;19913;-50
2021/08/08 12:39:28;;;;;;;;;;;26.30;94.50;;;;;;5046066;28;20232;-52
2021/08/08 12:41:54;;;;;;;;;;;26.30;94.70;;;;;;5045901;28;19978;-54
2021/08/08 12:44:30;;;;;;;;;;;26.30;94.90;;;;;;5045998;28;19909;-54
2021/08/08 12:47:03;;;;;;;;;;;26.20;95.00;;;;;;5045910;28;19909;-59
2021/08/08 12:49:37;;;;;;;;;;;26.20;95.00;;;;;;5045696;28;19963;-53
2021/08/08 12:52:04;;;;;;;;;;;26.30;95.40;;;;;;5028177;28;20094;-53
2021/08/08 12:54:31;;;;;;;;;;;26.30;95.40;;;;;;5011451;28;19913;-53
2021/08/08 12:56:57;;;;;;;;;;;26.20;95.50;;;;;;5045850;28;19913;-54
2021/08/08 12:59:24;;;;;;;;;;;26.20;95.50;;;;;;5045648;28;20190;-46
2021/08/08 13:01:50;;;;;;;;;;;26.20;95.60;;;;;;5045510;28;19941;-45
2021/08/08 13:04:17;;;;;;;;;;;26.20;95.70;;;;;;5045569;28;19933;-50
2021/08/08 13:06:46;;;;;;;;;;;26.20;95.70;;;;;;5045413;28;19968;-52
2021/08/08 13:09:13;;;;;;;;;;;26.20;95.80;;;;;;5045398;28;19910;-49
2021/08/08 13:11:39;;;;;;;;;;;26.20;95.60;;;;;;5045456;28;19909;-47
2021/08/08 13:14:06;;;;;;;;;;;26.20;95.60;;;;;;5045560;28;19905;-54
2021/08/08 13:16:32;;;;;;;;;;;26.20;95.50;;;;;;5045294;28;19905;-50
2021/08/08 13:18:58;;;;;;;;;;;26.20;95.40;;;;;;5045710;28;20016;-55
2021/08/08 13:21:25;;;;;;;;;;;26.20;95.50;;;;;;5045174;28;19906;-50
2021/08/08 13:23:51;;;;;;;;;;;26.20;95.50;;;;;;5027920;28;19920;-49
2021/08/08 13:26:17;;;;;;;;;;;26.10;95.50;;;;;;5045151;28;19947;-55
2021/08/08 13:28:46;;;;;;;;;;;26.10;95.50;;;;;;5027766;28;19924;-56
2021/08/08 13:31:13;;;;;;;;;;;26.10;95.50;;;;;;5045116;28;19951;-48
2021/08/08 13:33:39;;;;;;;;;;;26.20;95.50;;;;;;5045767;28;19917;-54
2021/08/08 13:36:06;;;;;;;;;;;26.10;95.50;;;;;;5045086;28;19912;-55
2021/08/08 13:38:32;;;;;;;;;;;26.20;95.70;;;;;;5045460;28;20181;-47
2021/08/08 13:40:59;;;;;;;;;;;26.10;95.50;;;;;;5045057;28;19976;-51
2021/08/08 13:43:25;;;;;;;;;;;26.10;95.30;;;;;;5027431;28;19920;-45
2021/08/08 13:45:51;;;;;;;;;;;26.10;94.80;;;;;;5044864;28;19905;-52
2021/08/08 13:48:17;;;;;;;;;;;26.10;94.40;;;;;;5027326;28;19994;-47
2021/08/08 13:50:44;;;;;;;;;;;26.10;94.10;;;;;;5044734;28;19984;-48
2021/08/08 13:53:10;;;;;;;;;;;26.00;93.90;;;;;;5044914;28;19948;-44
2021/08/08 13:55:38;;;;;;;;;;;26.00;93.90;;;;;;5044970;28;19909;-46
2021/08/08 13:58:04;;;;;;;;;;;25.90;93.90;;;;;;5044803;28;20198;-53
2021/08/08 14:00:33;;;;;;;;;;;25.90;93.80;;;;;;5044777;28;19976;-49
2021/08/08 14:02:59;;;;;;;;;;;25.90;93.90;;;;;;5044819;28;19920;-49
2021/08/08 14:05:26;;;;;;;;;;;25.90;94.10;;;;;;5027048;28;19905;-48
2021/08/08 14:07:52;;;;;;;;;;;25.90;94.20;;;;;;5044112;28;19913;-56
2021/08/08 14:10:18;;;;;;;;;;;25.90;94.10;;;;;;5044333;28;19955;-46
2021/08/08 14:12:44;;;;;;;;;;;25.90;94.10;;;;;;5044423;28;19978;-45
2021/08/08 14:15:11;;;;;;;;;;;25.90;94.20;;;;;;5044262;28;20121;-44
2021/08/08 14:17:40;;;;;;;;;;;25.90;94.20;;;;;;5044402;28;19913;-46